createdAt,value
2022-08-20T00:00:43.900Z,63.80
2022-08-20T00:03:14.143Z,63.76
2022-08-20T00:05:47.041Z,63.96
2022-08-20T00:08:13.724Z,64.40
2022-08-20T00:10:42.856Z,64.20
2022-08-20T00:13:18.180Z,65.11
2022-08-20T00:15:45.638Z,64.86
2022-08-20T00:18:12.883Z,65.94
2022-08-20T00:20:43.066Z,66.15
2022-08-20T00:23:10.700Z,65.34
2022-08-20T00:25:38.103Z,66.17
2022-08-20T00:28:07.095Z,67.37
2022-08-20T00:30:36.046Z,66.98
2022-08-20T00:33:06.975Z,66.88
2022-08-20T00:35:36.084Z,68.94
2022-08-20T00:38:04.554Z,68.79
2022-08-20T00:40:37.213Z,69.51
2022-08-20T00:43:07.300Z,69.50
2022-08-20T00:45:35.805Z,69.55
2022-08-20T00:48:02.846Z,68.85
2022-08-20T00:50:36.644Z,68.54
2022-08-20T00:53:08.528Z,70.47
2022-08-20T00:55:36.141Z,70.58
2022-08-20T00:58:09.097Z,70.38
2022-08-20T01:00:42.960Z,71.79
2022-08-20T01:03:11.412Z,72.25
2022-08-20T01:05:40.544Z,71.98
2022-08-20T01:08:07.868Z,71.98
2022-08-20T01:10:37.449Z,71.87
2022-08-20T01:13:11.148Z,72.29
2022-08-20T01:15:43.975Z,71.76
2022-08-20T01:18:14.623Z,72.06
2022-08-20T01:20:46.814Z,71.07
2022-08-20T01:23:43.285Z,71.27
2022-08-20T01:26:17.767Z,71.61
2022-08-20T01:28:53.602Z,72.48
2022-08-20T01:31:26.267Z,72.15
2022-08-20T01:33:55.196Z,72.71
2022-08-20T01:36:40.136Z,73.08
2022-08-20T01:39:12.852Z,72.63
2022-08-20T01:41:47.683Z,72.84
2022-08-20T01:44:18.532Z,72.40
2022-08-20T01:46:46.854Z,73.32
2022-08-20T01:49:19.204Z,72.30
2022-08-20T01:51:52.554Z,72.49
2022-08-20T01:54:19.818Z,72.34
2022-08-20T01:57:11.547Z,71.54
2022-08-20T01:59:38.682Z,69.94
2022-08-20T02:02:07.061Z,69.45
2022-08-20T02:04:34.347Z,68.91
2022-08-20T02:07:04.250Z,69.37
2022-08-20T02:09:36.499Z,69.31
2022-08-20T02:12:06.053Z,67.82
2022-08-20T02:14:33.542Z,67.84
2022-08-20T02:17:00.799Z,67.38
2022-08-20T02:19:32.411Z,66.64
2022-08-20T02:22:03.084Z,66.35
2022-08-20T02:24:30.137Z,67.01
2022-08-20T02:26:57.180Z,67.20
2022-08-20T02:29:24.042Z,66.41
2022-08-20T02:32:24.468Z,66.74
2022-08-20T02:34:37.700Z,67.20
2022-08-20T02:37:06.320Z,67.65
2022-08-20T02:39:33.622Z,70.38
2022-08-20T02:42:01.859Z,70.52
2022-08-20T02:44:28.636Z,69.63
2022-08-20T02:46:55.603Z,70.47
2022-08-20T02:49:22.307Z,70.13
2022-08-20T02:51:49.733Z,69.77
2022-08-20T02:54:17.431Z,70.05
2022-08-20T02:56:44.434Z,69.94
2022-08-20T02:59:11.115Z,70.14
2022-08-20T03:01:45.797Z,72.15
2022-08-20T03:04:12.472Z,72.59
2022-08-20T03:06:39.116Z,73.01
2022-08-20T03:09:07.813Z,72.74
2022-08-20T03:11:35.060Z,73.10
2022-08-20T03:14:02.408Z,73.66
2022-08-20T03:16:29.144Z,74.29
2022-08-20T03:18:55.899Z,75.01
2022-08-20T03:21:22.571Z,75.15
2022-08-20T03:23:49.369Z,75.62
2022-08-20T03:26:16.602Z,76.27
2022-08-20T03:28:43.465Z,75.69
2022-08-20T03:31:12.534Z,75.33
2022-08-20T03:33:52.667Z,75.47
2022-08-20T03:36:27.859Z,75.79
2022-08-20T03:39:00.016Z,75.78
2022-08-20T03:41:26.829Z,75.87
2022-08-20T03:43:53.684Z,76.00
2022-08-20T03:46:23.390Z,75.99
2022-08-20T03:48:56.705Z,76.45
2022-08-20T03:51:30.762Z,75.68
2022-08-20T03:53:57.962Z,77.09
2022-08-20T03:56:25.409Z,76.06
2022-08-20T03:58:52.240Z,76.68
2022-08-20T04:01:44.377Z,76.27
2022-08-20T04:04:05.760Z,75.45
2022-08-20T04:06:39.756Z,76.32
2022-08-20T04:09:07.323Z,75.46
2022-08-20T04:11:37.616Z,75.07
2022-08-20T04:14:04.712Z,73.99
2022-08-20T04:16:33.520Z,73.69
2022-08-20T04:19:02.271Z,73.29
2022-08-20T04:21:33.201Z,73.01
2022-08-20T04:24:00.616Z,73.95
2022-08-20T04:26:27.307Z,76.49
2022-08-20T04:28:55.563Z,76.14
2022-08-20T04:31:25.317Z,76.07
2022-08-20T04:33:52.842Z,75.50
2022-08-20T04:36:19.605Z,76.63
2022-08-20T04:38:49.920Z,76.60
2022-08-20T04:41:22.836Z,75.88
2022-08-20T04:43:53.181Z,76.33
2022-08-20T04:46:21.032Z,77.07
2022-08-20T04:48:48.586Z,77.22
2022-08-20T04:51:18.589Z,77.31
2022-08-20T04:53:53.196Z,77.33
2022-08-20T04:56:24.060Z,78.10
2022-08-20T04:58:53.285Z,78.52
2022-08-20T05:01:20.255Z,78.41
2022-08-20T05:03:49.837Z,78.64
2022-08-20T05:06:18.092Z,77.80
2022-08-20T05:08:45.100Z,77.74
2022-08-20T05:11:34.736Z,77.53
2022-08-20T05:13:59.090Z,77.51
2022-08-20T05:16:25.804Z,77.00
2022-08-20T05:18:53.066Z,77.20
2022-08-20T05:21:21.078Z,76.58
2022-08-20T05:23:47.825Z,76.51
2022-08-20T05:26:16.111Z,75.46
2022-08-20T05:28:54.448Z,75.82
2022-08-20T05:31:32.537Z,75.34
2022-08-20T05:34:09.720Z,75.87
2022-08-20T05:36:45.466Z,76.15
2022-08-20T05:39:14.859Z,75.74
2022-08-20T05:41:42.269Z,76.41
2022-08-20T05:44:13.401Z,76.72
2022-08-20T05:46:43.608Z,77.09
2022-08-20T05:49:13.632Z,77.28
2022-08-20T05:51:40.323Z,77.15
2022-08-20T05:54:07.560Z,76.89
2022-08-20T05:56:34.959Z,78.03
2022-08-20T05:59:06.420Z,77.44
2022-08-20T06:01:34.964Z,76.95
2022-08-20T06:04:20.213Z,77.36
2022-08-20T06:06:47.620Z,77.64
2022-08-20T06:09:16.581Z,77.17
2022-08-20T06:11:59.608Z,77.42
2022-08-20T06:14:26.738Z,76.93
2022-08-20T06:16:57.844Z,78.20
2022-08-20T06:19:27.035Z,77.20
2022-08-20T06:21:58.743Z,77.76
2022-08-20T06:24:25.439Z,77.44
2022-08-20T06:26:56.992Z,78.04
2022-08-20T06:29:23.645Z,79.23
2022-08-20T06:31:50.442Z,78.80
2022-08-20T06:34:18.876Z,78.76
2022-08-20T06:36:46.863Z,78.31
2022-08-20T06:39:15.306Z,77.95
2022-08-20T06:41:42.403Z,77.50
2022-08-20T06:44:10.175Z,76.31
2022-08-20T06:46:38.296Z,74.95
2022-08-20T06:49:07.257Z,74.14
2022-08-20T06:51:34.675Z,74.51
2022-08-20T06:54:01.542Z,75.07
2022-08-20T06:56:28.248Z,73.38
2022-08-20T06:58:54.922Z,73.00
2022-08-20T07:01:21.716Z,73.13
2022-08-20T07:03:55.778Z,72.33
2022-08-20T07:06:25.888Z,72.33
2022-08-20T07:08:54.162Z,72.13
2022-08-20T07:11:26.510Z,71.58
2022-08-20T07:13:54.511Z,71.71
2022-08-20T07:16:21.143Z,70.91
2022-08-20T07:18:47.829Z,71.20
2022-08-20T07:21:14.516Z,70.96
2022-08-20T07:23:42.213Z,70.83
2022-08-20T07:26:11.040Z,71.31
2022-08-20T07:28:37.706Z,72.01
2022-08-20T07:31:23.170Z,71.26
2022-08-20T07:33:50.410Z,70.85
2022-08-20T07:36:17.808Z,70.49
2022-08-20T07:38:47.202Z,70.28
2022-08-20T07:41:14.996Z,70.96
2022-08-20T07:43:45.696Z,70.89
2022-08-20T07:46:20.726Z,70.10
2022-08-20T07:48:50.218Z,71.27
2022-08-20T07:51:22.442Z,71.58
2022-08-20T07:53:51.707Z,70.95
2022-08-20T07:56:24.463Z,70.63
2022-08-20T07:58:55.314Z,70.93
2022-08-20T08:01:28.634Z,70.98
2022-08-20T08:03:57.603Z,71.99
2022-08-20T08:06:29.646Z,73.43
2022-08-20T08:09:13.720Z,74.30
2022-08-20T08:11:50.135Z,75.04
2022-08-20T08:14:23.662Z,74.57
2022-08-20T08:16:51.110Z,72.87
2022-08-20T08:19:18.699Z,74.53
2022-08-20T08:21:45.600Z,75.47
2022-08-20T08:24:16.684Z,75.78
2022-08-20T08:26:49.134Z,74.75
2022-08-20T08:29:16.479Z,75.11
2022-08-20T08:31:43.253Z,75.94
2022-08-20T08:34:10.016Z,75.11
2022-08-20T08:36:36.627Z,74.19
2022-08-20T08:39:03.343Z,76.31
2022-08-20T08:41:35.441Z,76.53
2022-08-20T08:44:12.256Z,75.48
2022-08-20T08:46:42.759Z,75.45
2022-08-20T08:49:16.201Z,76.15
2022-08-20T08:51:48.637Z,76.93
2022-08-20T08:54:21.383Z,77.03
2022-08-20T08:56:49.901Z,76.79
2022-08-20T08:59:19.361Z,77.29
2022-08-20T09:01:56.845Z,76.56
2022-08-20T09:04:32.213Z,77.15
2022-08-20T09:07:01.872Z,76.55
2022-08-20T09:09:39.727Z,76.20
2022-08-20T09:12:19.022Z,76.02
2022-08-20T09:14:50.620Z,76.95
2022-08-20T09:17:19.880Z,77.41
2022-08-20T09:19:46.876Z,78.39
2022-08-20T09:22:17.558Z,78.21
2022-08-20T09:24:45.165Z,78.36
2022-08-20T09:27:12.419Z,80.15
2022-08-20T09:29:40.283Z,81.88
2022-08-20T09:32:13.376Z,83.19
2022-08-20T09:34:44.838Z,81.67
2022-08-20T09:37:12.464Z,82.74
2022-08-20T09:39:39.647Z,83.47
2022-08-20T09:42:12.137Z,84.48
2022-08-20T09:44:38.967Z,82.71
2022-08-20T09:47:05.854Z,82.98
2022-08-20T09:49:32.957Z,84.17
2022-08-20T09:52:01.389Z,84.90
2022-08-20T09:54:30.244Z,84.31
2022-08-20T09:57:02.499Z,86.64
2022-08-20T09:59:31.330Z,87.50
2022-08-20T10:01:58.231Z,86.46
2022-08-20T10:04:25.004Z,85.29
2022-08-20T10:06:51.804Z,82.52
2022-08-20T10:09:19.065Z,80.71
2022-08-20T10:11:45.767Z,79.11
2022-08-20T10:14:12.466Z,77.91
2022-08-20T10:16:39.088Z,78.31
2022-08-20T10:19:06.096Z,78.16
2022-08-20T10:21:38.124Z,81.15
2022-08-20T10:24:05.782Z,81.91
2022-08-20T10:26:32.448Z,82.26
2022-08-20T10:28:59.099Z,83.47
2022-08-20T10:31:25.779Z,83.16
2022-08-20T10:33:52.436Z,83.17
2022-08-20T10:36:19.153Z,81.53
2022-08-20T10:38:46.437Z,79.69
2022-08-20T10:41:13.325Z,78.55
2022-08-20T10:43:40.090Z,77.01
2022-08-20T10:46:07.024Z,76.78
2022-08-20T10:48:33.797Z,76.23
2022-08-20T10:51:00.748Z,75.78
2022-08-20T10:53:27.463Z,75.51
2022-08-20T10:55:54.914Z,75.10
2022-08-20T10:58:23.764Z,74.48
2022-08-20T11:00:52.224Z,74.05
2022-08-20T11:03:19.432Z,74.14
2022-08-20T11:05:46.655Z,76.73
2022-08-20T11:08:13.360Z,77.43
2022-08-20T11:10:41.166Z,76.38
2022-08-20T11:13:08.587Z,75.79
2022-08-20T11:15:42.128Z,76.50
2022-08-20T11:18:09.215Z,76.22
2022-08-20T11:20:37.022Z,76.25
2022-08-20T11:23:04.217Z,76.46
2022-08-20T11:25:31.804Z,76.59
2022-08-20T11:27:59.267Z,76.10
2022-08-20T11:30:33.842Z,77.03
2022-08-20T11:33:01.059Z,77.45
2022-08-20T11:35:49.949Z,76.64
2022-08-20T11:38:18.308Z,77.12
2022-08-20T11:40:46.786Z,76.41
2022-08-20T11:43:15.913Z,76.83
2022-08-20T11:45:49.751Z,76.24
2022-08-20T11:48:16.960Z,76.25
2022-08-20T11:50:44.423Z,76.24
2022-08-20T11:53:11.175Z,75.81
2022-08-20T11:55:38.692Z,75.06
2022-08-20T11:58:06.113Z,75.08
2022-08-20T12:00:34.299Z,74.98
2022-08-20T12:03:04.997Z,74.67
2022-08-20T12:05:32.487Z,74.34
2022-08-20T12:08:01.370Z,74.57
2022-08-20T12:10:29.363Z,74.71
2022-08-20T12:12:56.664Z,74.77
2022-08-20T12:15:24.367Z,74.20
2022-08-20T12:17:51.103Z,73.64
2022-08-20T12:20:17.915Z,73.98
2022-08-20T12:22:44.791Z,74.13
2022-08-20T12:25:13.342Z,73.88
2022-08-20T12:27:41.438Z,74.37
2022-08-20T12:30:16.975Z,74.28
2022-08-20T12:32:44.705Z,73.47
2022-08-20T12:35:13.010Z,73.86
2022-08-20T12:37:40.764Z,74.01
2022-08-20T12:40:14.262Z,74.16
2022-08-20T12:42:41.281Z,73.90
2022-08-20T12:45:08.492Z,74.43
2022-08-20T12:47:38.014Z,73.87
2022-08-20T12:50:16.512Z,73.88
2022-08-20T12:52:43.253Z,74.17
2022-08-20T12:55:12.071Z,73.19
2022-08-20T12:57:42.043Z,73.46
2022-08-20T13:00:13.816Z,72.85
2022-08-20T13:02:41.405Z,72.38
2022-08-20T13:05:13.767Z,72.42
2022-08-20T13:07:41.326Z,71.92
2022-08-20T13:10:10.402Z,71.79
2022-08-20T13:12:37.190Z,71.07
2022-08-20T13:15:05.054Z,71.13
2022-08-20T13:17:38.597Z,71.37
2022-08-20T13:20:10.204Z,71.70
2022-08-20T13:22:37.050Z,70.99
2022-08-20T13:25:05.462Z,71.02
2022-08-20T13:27:32.246Z,71.68
2022-08-20T13:29:59.412Z,73.13
2022-08-20T13:32:27.828Z,73.20
2022-08-20T13:34:54.773Z,72.39
2022-08-20T13:37:25.775Z,73.09
2022-08-20T13:39:53.984Z,73.57
2022-08-20T13:42:21.202Z,74.03
2022-08-20T13:44:48.517Z,73.73
2022-08-20T13:47:19.637Z,74.32
2022-08-20T13:49:47.670Z,74.15
2022-08-20T13:52:16.996Z,72.65
2022-08-20T13:54:44.039Z,72.96
2022-08-20T13:57:13.857Z,74.30
2022-08-20T13:59:43.194Z,73.66
2022-08-20T14:02:11.399Z,73.47
2022-08-20T14:04:38.902Z,75.23
2022-08-20T14:07:32.615Z,75.60
2022-08-20T14:10:07.699Z,76.42
2022-08-20T14:12:34.919Z,77.55
2022-08-20T14:15:01.735Z,76.62
2022-08-20T14:17:37.279Z,75.03
2022-08-20T14:20:13.671Z,76.54
2022-08-20T14:22:42.491Z,74.80
2022-08-20T14:25:15.198Z,74.41
2022-08-20T14:27:42.204Z,73.82
2022-08-20T14:30:12.841Z,73.18
2022-08-20T14:32:39.575Z,73.07
2022-08-20T14:35:07.138Z,72.49
2022-08-20T14:37:39.319Z,73.12
2022-08-20T14:40:09.582Z,72.31
2022-08-20T14:42:36.963Z,72.23
2022-08-20T14:45:06.514Z,72.42
2022-08-20T14:47:40.179Z,71.47
2022-08-20T14:50:10.943Z,72.34
2022-08-20T14:52:38.028Z,73.01
2022-08-20T14:55:06.873Z,71.56
2022-08-20T14:57:34.012Z,70.85
2022-08-20T15:00:01.238Z,71.45
2022-08-20T15:02:27.931Z,71.46
2022-08-20T15:04:56.240Z,71.40
2022-08-20T15:07:37.950Z,70.94
2022-08-20T15:10:07.934Z,70.80
2022-08-20T15:12:37.744Z,70.49
2022-08-20T15:15:15.392Z,70.11
2022-08-20T15:18:09.022Z,70.37
2022-08-20T15:20:36.779Z,70.29
2022-08-20T15:23:04.799Z,70.37
2022-08-20T15:25:36.641Z,71.80
2022-08-20T15:28:06.896Z,72.33
2022-08-20T15:30:33.699Z,73.97
2022-08-20T15:33:00.828Z,75.79
2022-08-20T15:35:28.695Z,76.64
2022-08-20T15:37:58.195Z,77.40
2022-08-20T15:40:28.672Z,74.57
2022-08-20T15:42:57.205Z,74.19
2022-08-20T15:45:24.135Z,73.37
2022-08-20T15:48:00.470Z,72.90
2022-08-20T15:51:04.510Z,73.90
2022-08-20T15:53:39.587Z,74.99
2022-08-20T15:56:25.299Z,75.92
2022-08-20T15:59:00.701Z,76.02
2022-08-20T16:01:47.281Z,73.63
2022-08-20T16:04:58.535Z,72.47
2022-08-20T16:07:39.347Z,73.18
2022-08-20T16:10:16.102Z,72.48
2022-08-20T16:12:48.275Z,72.23
2022-08-20T16:15:20.800Z,72.11
2022-08-20T16:17:51.658Z,73.31
2022-08-20T16:20:35.941Z,72.55
2022-08-20T16:23:04.032Z,72.06
2022-08-20T16:25:39.410Z,71.63
2022-08-20T16:28:29.071Z,71.71
2022-08-20T16:31:05.490Z,72.35
2022-08-20T16:33:45.371Z,71.09
2022-08-20T16:36:37.431Z,70.88
2022-08-20T16:39:08.226Z,70.43
2022-08-20T16:41:47.461Z,70.47
2022-08-20T16:44:35.286Z,70.28
2022-08-20T16:47:14.330Z,70.48
2022-08-20T16:49:49.793Z,70.22
2022-08-20T16:52:16.478Z,70.10
2022-08-20T16:54:44.766Z,70.46
2022-08-20T16:57:17.057Z,69.79
2022-08-20T16:59:57.775Z,70.15
2022-08-20T17:02:25.485Z,70.58
2022-08-20T17:04:58.887Z,70.33
2022-08-20T17:07:46.185Z,69.73
2022-08-20T17:10:24.139Z,70.31
2022-08-20T17:13:02.658Z,69.89
2022-08-20T17:15:32.563Z,70.17
2022-08-20T17:18:24.392Z,69.32
2022-08-20T17:20:51.373Z,70.30
2022-08-20T17:23:19.784Z,70.43
2022-08-20T17:26:00.567Z,69.59
2022-08-20T17:28:33.177Z,69.40
2022-08-20T17:31:01.857Z,69.02
2022-08-20T17:33:33.893Z,68.90
2022-08-20T17:36:19.725Z,68.78
2022-08-20T17:38:51.768Z,68.87
2022-08-20T17:41:26.793Z,68.81
2022-08-20T17:44:07.250Z,68.41
2022-08-20T17:46:45.669Z,69.28
2022-08-20T17:49:17.741Z,68.91
2022-08-20T17:51:50.895Z,68.69
2022-08-20T17:54:23.634Z,67.92
2022-08-20T17:56:52.223Z,67.98
2022-08-20T17:59:44.400Z,67.55
2022-08-20T18:02:09.089Z,67.11
2022-08-20T18:04:35.819Z,66.93
2022-08-20T18:07:11.207Z,66.94
2022-08-20T18:09:46.575Z,66.81
2022-08-20T18:12:33.825Z,66.78
2022-08-20T18:15:16.130Z,67.06
2022-08-20T18:18:01.481Z,66.58
2022-08-20T18:20:28.053Z,66.86
2022-08-20T18:23:06.776Z,66.67
2022-08-20T18:25:46.051Z,67.07
2022-08-20T18:28:12.585Z,67.38
2022-08-20T18:30:47.639Z,67.19
2022-08-20T18:33:14.256Z,67.10
2022-08-20T18:35:45.535Z,67.12
2022-08-20T18:38:26.142Z,67.54
2022-08-20T18:40:55.259Z,66.97
2022-08-20T18:43:30.539Z,66.97
2022-08-20T18:46:08.674Z,66.60
2022-08-20T18:48:35.279Z,67.46
2022-08-20T18:51:03.182Z,66.84
2022-08-20T18:53:33.849Z,66.83
2022-08-20T18:56:08.671Z,67.20
2022-08-20T18:58:50.108Z,67.12
2022-08-20T19:01:19.264Z,67.46
2022-08-20T19:03:47.651Z,67.49
2022-08-20T19:06:29.350Z,67.52
2022-08-20T19:09:14.920Z,67.89
2022-08-20T19:12:00.332Z,67.86
2022-08-20T19:14:33.051Z,66.85
2022-08-20T19:17:06.723Z,66.41
2022-08-20T19:19:33.523Z,66.01
2022-08-20T19:22:01.238Z,65.93
2022-08-20T19:24:29.310Z,66.61
2022-08-20T19:27:04.573Z,66.20
2022-08-20T19:29:33.058Z,66.03
2022-08-20T19:32:00.975Z,66.06
2022-08-20T19:34:28.256Z,65.83
2022-08-20T19:37:02.155Z,66.31
2022-08-20T19:39:37.466Z,66.65
2022-08-20T19:42:04.057Z,66.13
2022-08-20T19:44:32.817Z,66.90
2022-08-20T19:47:01.106Z,66.45
2022-08-20T19:49:36.531Z,66.82
2022-08-20T19:52:09.658Z,67.69
2022-08-20T19:54:43.910Z,69.33
2022-08-20T19:57:10.825Z,69.95
2022-08-20T19:59:37.944Z,71.48
2022-08-20T20:02:20.674Z,73.11
2022-08-20T20:04:54.979Z,71.93
2022-08-20T20:07:45.069Z,69.20
2022-08-20T20:10:23.631Z,70.18
2022-08-20T20:12:50.406Z,69.08
2022-08-20T20:15:17.735Z,68.48
2022-08-20T20:17:44.742Z,69.20
2022-08-20T20:20:17.406Z,67.89
2022-08-20T20:22:52.015Z,68.02
2022-08-20T20:25:27.703Z,69.24
2022-08-20T20:27:55.653Z,69.50
2022-08-20T20:30:33.512Z,70.43
2022-08-20T20:33:01.316Z,71.27
2022-08-20T20:35:32.936Z,70.28
2022-08-20T20:38:04.454Z,71.46
2022-08-20T20:40:33.997Z,73.50
2022-08-20T20:43:07.611Z,72.01
2022-08-20T20:45:39.578Z,72.34
2022-08-20T20:48:14.136Z,71.57
2022-08-20T20:50:40.683Z,70.22
2022-08-20T20:53:07.574Z,70.29
2022-08-20T20:55:37.414Z,69.59
2022-08-20T20:58:03.996Z,68.35
2022-08-20T21:00:33.089Z,68.16
2022-08-20T21:03:00.291Z,68.32
2022-08-20T21:05:30.327Z,68.09
2022-08-20T21:07:58.612Z,68.55
2022-08-20T21:10:27.519Z,68.21
2022-08-20T21:12:54.426Z,69.43
2022-08-20T21:15:22.313Z,68.91
2022-08-20T21:17:48.951Z,68.65
2022-08-20T21:20:15.540Z,68.48
2022-08-20T21:22:42.102Z,68.13
2022-08-20T21:25:08.806Z,68.35
2022-08-20T21:27:35.810Z,69.12
2022-08-20T21:30:03.648Z,69.20
2022-08-20T21:32:30.211Z,68.40
2022-08-20T21:34:56.726Z,68.02
2022-08-20T21:37:23.245Z,67.97
2022-08-20T21:39:49.763Z,67.87
2022-08-20T21:42:28.799Z,67.72
2022-08-20T21:44:56.624Z,68.59
2022-08-20T21:47:23.147Z,68.85
2022-08-20T21:49:49.643Z,68.87
2022-08-20T21:52:16.186Z,69.50
2022-08-20T21:54:42.700Z,69.38
2022-08-20T21:57:13.576Z,68.62
2022-08-20T21:59:41.426Z,68.50
2022-08-20T22:02:08.344Z,67.98
2022-08-20T22:04:35.622Z,67.79
2022-08-20T22:07:03.553Z,67.57
2022-08-20T22:09:32.850Z,67.66
2022-08-20T22:12:02.730Z,67.58
2022-08-20T22:14:29.542Z,67.99
2022-08-20T22:16:56.058Z,68.46
2022-08-20T22:19:22.586Z,70.05
2022-08-20T22:21:49.619Z,70.72
2022-08-20T22:24:16.125Z,71.98
2022-08-20T22:26:42.907Z,72.51
2022-08-20T22:29:10.165Z,75.28
2022-08-20T22:31:38.499Z,75.59
2022-08-20T22:34:05.467Z,74.20
2022-08-20T22:36:32.838Z,72.27
2022-08-20T22:38:59.633Z,71.71
2022-08-20T22:41:26.139Z,75.57
2022-08-20T22:43:56.934Z,77.42
2022-08-20T22:46:26.462Z,78.54
2022-08-20T22:48:53.722Z,74.48
2022-08-20T22:51:30.392Z,72.85
2022-08-20T22:53:57.333Z,74.73
2022-08-20T22:56:23.923Z,75.41
2022-08-20T22:58:51.072Z,76.32
2022-08-20T23:01:18.756Z,74.93
2022-08-20T23:03:45.884Z,73.43
2022-08-20T23:06:12.865Z,72.96
2022-08-20T23:08:40.033Z,71.87
2022-08-20T23:11:06.595Z,71.07
2022-08-20T23:13:33.334Z,70.54
2022-08-20T23:15:59.903Z,70.74
2022-08-20T23:18:26.482Z,70.64
2022-08-20T23:20:56.109Z,70.01
2022-08-20T23:23:24.214Z,70.21
2022-08-20T23:25:50.797Z,70.28
2022-08-20T23:28:21.058Z,69.89
2022-08-20T23:30:47.621Z,69.99
2022-08-20T23:33:14.651Z,70.96
2022-08-20T23:35:41.983Z,70.94
2022-08-20T23:38:08.634Z,70.46
2022-08-20T23:40:35.458Z,70.14
2022-08-20T23:43:02.105Z,69.71
2022-08-20T23:45:28.794Z,69.40
2022-08-20T23:47:55.371Z,69.52
2022-08-20T23:50:25.789Z,69.33
2022-08-20T23:52:52.738Z,69.66
2022-08-20T23:55:19.479Z,71.42
2022-08-20T23:57:46.019Z,69.92
